CFG5AL EDDM-GCTS
Flight info
| Callsign | CFG5AL |
|---|---|
| Flight time | N/A |
| Altitude | 33000 |
| Route | ALG2E ALG Y109 UMTEX Y100 TRA DCT LUTIX DCT BENOT DCT NEMOS DCT NINTU/N0453F350 DCT MEBAK DCT REPSI DCT LERGA DCT MINSO DCT NARAK DCT AGN DCT PIPOR L866 PPN DCT MIRPO DCT DGO DCT NEA L14 ADINO DCT RAKOD DCT ELVAR DCT GAIOS DCT TROIA DCT BEXAL UN866 KUBIL/N0460F370 UN866 KONBA |
| Aircraft | A320/M-SDE2FGHIJ1RWXY/LB1 |
Departure
| Time | 2026-05-08 06:03 |
|---|---|
| Airport | Munich Airport (EDDM) |
Arrival
| Time | N/A |
|---|---|
| Airport | Tenerife Sur Airport (GCTS) |
| Time | Latitude | Longitude | Altitude | Speed | Heading |
|---|---|---|---|---|---|
| 2026-05-08 05:15 | 48.34864 | 11.78388 | 1486 ft | 0 kts | 83° |
| 2026-05-08 05:44 | 48.34864 | 11.78389 | 1479 ft | 0 kts | 83° |
| 2026-05-08 05:44 | 48.34863 | 11.78381 | 1477 ft | 2 kts | 83° |
| 2026-05-08 05:44 | 48.34861 | 11.78355 | 1485 ft | 2 kts | 83° |
| 2026-05-08 05:45 | 48.34860 | 11.78338 | 1485 ft | 0 kts | 83° |
| 2026-05-08 05:48 | 48.34864 | 11.78341 | 1485 ft | 1 kts | 38° |
| 2026-05-08 05:48 | 48.34869 | 11.78335 | 1485 ft | 2 kts | 331° |
| 2026-05-08 05:48 | 48.34899 | 11.78295 | 1475 ft | 9 kts | 318° |
| 2026-05-08 05:48 | 48.34952 | 11.78265 | 1483 ft | 8 kts | 348° |
| 2026-05-08 05:49 | 48.35035 | 11.78249 | 1481 ft | 16 kts | 352° |
| 2026-05-08 05:49 | 48.35145 | 11.78229 | 1476 ft | 14 kts | 356° |
| 2026-05-08 05:49 | 48.35201 | 11.78137 | 1472 ft | 13 kts | 265° |
| 2026-05-08 05:49 | 48.35189 | 11.78004 | 1473 ft | 12 kts | 263° |
| 2026-05-08 05:50 | 48.35179 | 11.77886 | 1485 ft | 10 kts | 261° |
| 2026-05-08 05:50 | 48.35140 | 11.77820 | 1482 ft | 8 kts | 199° |
| 2026-05-08 05:50 | 48.35093 | 11.77828 | 1477 ft | 8 kts | 170° |
| 2026-05-08 05:50 | 48.35009 | 11.77844 | 1476 ft | 15 kts | 172° |
| 2026-05-08 05:51 | 48.34902 | 11.77864 | 1482 ft | 15 kts | 174° |
| 2026-05-08 05:51 | 48.34795 | 11.77882 | 1475 ft | 16 kts | 174° |
| 2026-05-08 05:51 | 48.34685 | 11.77888 | 1479 ft | 16 kts | 200° |
| 2026-05-08 05:51 | 48.34651 | 11.77737 | 1479 ft | 16 kts | 263° |
| 2026-05-08 05:52 | 48.34637 | 11.77563 | 1473 ft | 17 kts | 263° |
| 2026-05-08 05:52 | 48.34622 | 11.77381 | 1485 ft | 18 kts | 263° |
| 2026-05-08 05:52 | 48.34607 | 11.77189 | 1479 ft | 19 kts | 263° |
| 2026-05-08 05:52 | 48.34590 | 11.76988 | 1485 ft | 20 kts | 263° |
| 2026-05-08 05:53 | 48.34575 | 11.76778 | 1485 ft | 21 kts | 264° |
| 2026-05-08 05:53 | 48.34560 | 11.76560 | 1485 ft | 21 kts | 263° |
| 2026-05-08 05:53 | 48.34541 | 11.76337 | 1485 ft | 22 kts | 263° |
| 2026-05-08 05:53 | 48.34523 | 11.76109 | 1485 ft | 22 kts | 263° |
| 2026-05-08 05:54 | 48.34506 | 11.75889 | 1476 ft | 18 kts | 263° |
| 2026-05-08 05:54 | 48.34496 | 11.75761 | 1485 ft | 19 kts | 264° |
| 2026-05-08 05:54 | 48.34475 | 11.75494 | 1485 ft | 20 kts | 263° |
| 2026-05-08 05:54 | 48.34466 | 11.75369 | 1485 ft | 15 kts | 264° |
| 2026-05-08 05:55 | 48.34456 | 11.75209 | 1482 ft | 15 kts | 265° |
| 2026-05-08 05:55 | 48.34416 | 11.75070 | 1474 ft | 15 kts | 201° |
| 2026-05-08 05:55 | 48.34317 | 11.75078 | 1479 ft | 14 kts | 173° |
| 2026-05-08 05:55 | 48.34254 | 11.75089 | 1474 ft | 8 kts | 174° |
| 2026-05-08 05:56 | 48.34209 | 11.75097 | 1485 ft | 3 kts | 172° |
| 2026-05-08 05:56 | 48.34201 | 11.75100 | 1481 ft | 0 kts | 169° |
| 2026-05-08 06:00 | 48.34176 | 11.75107 | 1475 ft | 8 kts | 167° |
| 2026-05-08 06:00 | 48.34104 | 11.75158 | 1482 ft | 12 kts | 153° |
| 2026-05-08 06:01 | 48.34080 | 11.75250 | 1477 ft | 5 kts | 84° |
| 2026-05-08 06:01 | 48.34080 | 11.75252 | 1485 ft | 0 kts | 84° |
| 2026-05-08 06:01 | 48.34080 | 11.75253 | 1473 ft | 1 kts | 84° |
| 2026-05-08 06:02 | 48.34098 | 11.75482 | 1485 ft | 56 kts | 83° |
| 2026-05-08 06:02 | 48.34172 | 11.76401 | 1485 ft | 118 kts | 83° |
| 2026-05-08 06:02 | 48.34286 | 11.77877 | 1487 ft | 167 kts | 83° |
| 2026-05-08 06:02 | 48.34417 | 11.79698 | 1875 ft | 177 kts | 84° |
| 2026-05-08 06:03 | 48.34532 | 11.81560 | 2462 ft | 181 kts | 83° |
| 2026-05-08 06:03 | 48.34666 | 11.83436 | 3162 ft | 180 kts | 83° |
| 2026-05-08 06:03 | 48.34816 | 11.85368 | 3506 ft | 195 kts | 83° |
| 2026-05-08 06:03 | 48.34983 | 11.87508 | 3697 ft | 217 kts | 83° |
| 2026-05-08 06:04 | 48.35172 | 11.89872 | 3963 ft | 238 kts | 83° |
| 2026-05-08 06:04 | 48.35372 | 11.92376 | 4596 ft | 244 kts | 84° |
| 2026-05-08 06:04 | 48.35274 | 11.94916 | 5269 ft | 247 kts | 110° |
| 2026-05-08 06:04 | 48.34308 | 11.97032 | 5928 ft | 250 kts | 140° |
| 2026-05-08 06:05 | 48.32934 | 11.98661 | 6630 ft | 253 kts | 142° |
| 2026-05-08 06:05 | 48.31535 | 12.00287 | 7319 ft | 256 kts | 143° |
| 2026-05-08 06:05 | 48.30046 | 12.01769 | 8004 ft | 259 kts | 156° |
| 2026-05-08 06:05 | 48.28318 | 12.02581 | 8560 ft | 268 kts | 172° |
| 2026-05-08 06:06 | 48.26403 | 12.02626 | 8981 ft | 281 kts | 184° |
| 2026-05-08 06:06 | 48.24438 | 12.02487 | 9632 ft | 285 kts | 183° |
| 2026-05-08 06:06 | 48.22445 | 12.02361 | 10319 ft | 288 kts | 184° |
| 2026-05-08 06:06 | 48.20433 | 12.02241 | 10985 ft | 292 kts | 184° |
| 2026-05-08 06:07 | 48.18393 | 12.02123 | 11645 ft | 295 kts | 185° |
| 2026-05-08 06:07 | 48.16332 | 12.02007 | 12281 ft | 298 kts | 186° |
| 2026-05-08 06:07 | 48.14255 | 12.01891 | 12920 ft | 301 kts | 185° |
| 2026-05-08 06:07 | 48.12274 | 12.01776 | 13527 ft | 303 kts | 186° |
| 2026-05-08 06:08 | 48.10196 | 12.01364 | 14116 ft | 301 kts | 201° |
| 2026-05-08 06:08 | 48.08337 | 11.99998 | 14693 ft | 298 kts | 220° |
| 2026-05-08 06:08 | 48.06900 | 11.97809 | 15258 ft | 296 kts | 238° |
| 2026-05-08 06:08 | 48.06026 | 11.95037 | 15811 ft | 297 kts | 255° |
| 2026-05-08 06:09 | 48.05527 | 11.92036 | 16378 ft | 298 kts | 257° |
| 2026-05-08 06:09 | 48.05028 | 11.89019 | 16920 ft | 300 kts | 256° |
| 2026-05-08 06:09 | 48.04519 | 11.85973 | 17458 ft | 302 kts | 256° |
| 2026-05-08 06:09 | 48.04004 | 11.82917 | 17984 ft | 305 kts | 256° |
| 2026-05-08 06:10 | 48.03482 | 11.79836 | 18502 ft | 307 kts | 256° |
| 2026-05-08 06:10 | 48.02953 | 11.76736 | 18995 ft | 310 kts | 256° |
| 2026-05-08 06:10 | 48.02418 | 11.73601 | 19483 ft | 312 kts | 256° |
| 2026-05-08 06:10 | 48.01884 | 11.70453 | 19985 ft | 314 kts | 256° |
| 2026-05-08 06:11 | 48.01354 | 11.67273 | 20461 ft | 316 kts | 259° |
| 2026-05-08 06:11 | 48.01102 | 11.64006 | 20901 ft | 319 kts | 266° |
| 2026-05-08 06:11 | 48.00955 | 11.60685 | 21350 ft | 321 kts | 265° |
| 2026-05-08 06:11 | 48.00802 | 11.57348 | 21794 ft | 323 kts | 265° |
| 2026-05-08 06:12 | 48.00647 | 11.54010 | 22211 ft | 325 kts | 265° |
| 2026-05-08 06:12 | 48.00490 | 11.50615 | 22641 ft | 327 kts | 266° |
| 2026-05-08 06:12 | 48.00333 | 11.47205 | 23054 ft | 330 kts | 266° |
| 2026-05-08 06:12 | 48.00172 | 11.43778 | 23462 ft | 332 kts | 265° |
| 2026-05-08 06:13 | 48.00006 | 11.40327 | 23859 ft | 334 kts | 265° |
| 2026-05-08 06:13 | 47.99836 | 11.36863 | 24279 ft | 336 kts | 265° |
| 2026-05-08 06:13 | 47.99665 | 11.33385 | 24693 ft | 337 kts | 265° |
| 2026-05-08 06:13 | 47.99493 | 11.29891 | 25070 ft | 338 kts | 265° |
| 2026-05-08 06:14 | 47.99320 | 11.26384 | 25472 ft | 339 kts | 265° |
| 2026-05-08 06:14 | 47.99148 | 11.22868 | 25861 ft | 341 kts | 265° |
| 2026-05-08 06:14 | 47.98976 | 11.19333 | 26256 ft | 342 kts | 265° |
| 2026-05-08 06:14 | 47.98800 | 11.15755 | 26642 ft | 343 kts | 265° |
| 2026-05-08 06:15 | 47.98620 | 11.12186 | 27021 ft | 344 kts | 265° |
| 2026-05-08 06:15 | 47.98441 | 11.08628 | 27398 ft | 345 kts | 265° |
| 2026-05-08 06:15 | 47.98261 | 11.05051 | 27747 ft | 346 kts | 266° |
| 2026-05-08 06:15 | 47.98269 | 11.01518 | 27968 ft | 352 kts | 271° |
| 2026-05-08 06:16 | 47.98349 | 10.97831 | 28097 ft | 360 kts | 271° |
| 2026-05-08 06:16 | 47.98436 | 10.94063 | 28226 ft | 367 kts | 271° |
| 2026-05-08 06:16 | 47.98526 | 10.90218 | 28354 ft | 374 kts | 271° |
| 2026-05-08 06:16 | 47.98615 | 10.86306 | 28483 ft | 380 kts | 271° |
| 2026-05-08 06:17 | 47.98784 | 10.78293 | 28736 ft | 392 kts | 271° |
| 2026-05-08 06:17 | 47.98867 | 10.74199 | 28863 ft | 397 kts | 271° |
| 2026-05-08 06:17 | 47.98951 | 10.70053 | 28992 ft | 402 kts | 271° |
| 2026-05-08 06:18 | 47.99101 | 10.62375 | 29219 ft | 409 kts | 271° |
| 2026-05-08 06:18 | 47.99185 | 10.58116 | 29345 ft | 413 kts | 271° |
| 2026-05-08 06:18 | 47.99268 | 10.53817 | 29470 ft | 416 kts | 271° |
| 2026-05-08 06:19 | 47.99350 | 10.49484 | 29596 ft | 419 kts | 271° |
| 2026-05-08 06:19 | 47.99428 | 10.45122 | 29725 ft | 421 kts | 271° |
| 2026-05-08 06:19 | 47.99502 | 10.40753 | 29918 ft | 422 kts | 271° |
| 2026-05-08 06:19 | 47.99573 | 10.36377 | 30162 ft | 421 kts | 271° |
| 2026-05-08 06:20 | 47.99643 | 10.32014 | 30405 ft | 420 kts | 271° |
| 2026-05-08 06:20 | 47.99544 | 10.27663 | 30622 ft | 419 kts | 263° |
| 2026-05-08 06:20 | 47.98969 | 10.23344 | 30850 ft | 419 kts | 254° |
| 2026-05-08 06:20 | 47.98001 | 10.19236 | 31075 ft | 419 kts | 250° |
| 2026-05-08 06:21 | 47.96978 | 10.15165 | 31285 ft | 419 kts | 250° |
| 2026-05-08 06:21 | 47.95960 | 10.11099 | 31500 ft | 419 kts | 250° |
| 2026-05-08 06:21 | 47.94944 | 10.07032 | 31718 ft | 418 kts | 250° |
| 2026-05-08 06:21 | 47.93927 | 10.02970 | 31927 ft | 418 kts | 250° |
| 2026-05-08 06:22 | 47.92909 | 9.98913 | 32148 ft | 417 kts | 250° |
| 2026-05-08 06:22 | 47.91891 | 9.94865 | 32376 ft | 416 kts | 250° |
| 2026-05-08 06:22 | 47.90886 | 9.90889 | 32590 ft | 416 kts | 250° |
| 2026-05-08 06:22 | 47.89865 | 9.86853 | 32799 ft | 415 kts | 250° |
| 2026-05-08 06:23 | 47.88844 | 9.82831 | 33001 ft | 415 kts | 250° |
| 2026-05-08 06:23 | 47.87831 | 9.78808 | 33075 ft | 415 kts | 250° |
| 2026-05-08 06:23 | 47.85828 | 9.70754 | 33082 ft | 414 kts | 250° |
| 2026-05-08 06:24 | 47.83875 | 9.62691 | 33081 ft | 413 kts | 255° |
| 2026-05-08 06:24 | 47.82784 | 9.54313 | 33081 ft | 412 kts | 260° |
| 2026-05-08 06:25 | 47.81779 | 9.45910 | 33082 ft | 412 kts | 259° |
| 2026-05-08 06:25 | 47.80766 | 9.37517 | 33080 ft | 412 kts | 259° |
| 2026-05-08 06:26 | 47.79750 | 9.29223 | 33079 ft | 412 kts | 259° |
| 2026-05-08 06:26 | 47.78718 | 9.20830 | 33079 ft | 412 kts | 259° |
| 2026-05-08 06:27 | 47.77681 | 9.12453 | 33079 ft | 412 kts | 259° |
| 2026-05-08 06:27 | 47.76645 | 9.04083 | 33074 ft | 412 kts | 259° |
| 2026-05-08 06:28 | 47.75602 | 8.95717 | 33069 ft | 412 kts | 259° |
| 2026-05-08 06:28 | 47.74548 | 8.87355 | 33065 ft | 412 kts | 259° |
| 2026-05-08 06:29 | 47.73486 | 8.78989 | 33063 ft | 413 kts | 258° |
| 2026-05-08 06:29 | 47.72424 | 8.70607 | 33061 ft | 413 kts | 258° |
| 2026-05-08 06:30 | 47.71531 | 8.63636 | 33060 ft | 414 kts | 258° |
| 2026-05-08 06:30 | 47.70445 | 8.55226 | 33049 ft | 416 kts | 257° |
| 2026-05-08 06:31 | 47.69251 | 8.46787 | 33047 ft | 418 kts | 251° |
| 2026-05-08 06:31 | 47.67758 | 8.41531 | 33048 ft | 418 kts | 239° |
| 2026-05-08 06:31 | 47.66721 | 8.39074 | 33049 ft | 418 kts | 234° |
| 2026-05-08 06:32 | 47.63315 | 8.32066 | 33051 ft | 419 kts | 234° |
| 2026-05-08 06:32 | 47.59910 | 8.25029 | 33055 ft | 421 kts | 234° |
| 2026-05-08 06:33 | 47.56490 | 8.17976 | 33056 ft | 422 kts | 234° |
| 2026-05-08 06:33 | 47.53052 | 8.10939 | 33062 ft | 422 kts | 233° |
| 2026-05-08 06:34 | 47.49611 | 8.03902 | 33066 ft | 422 kts | 233° |
| 2026-05-08 06:34 | 47.46173 | 7.96876 | 33068 ft | 422 kts | 233° |
| 2026-05-08 06:35 | 47.42749 | 7.89896 | 33069 ft | 422 kts | 233° |
| 2026-05-08 06:35 | 47.39295 | 7.82885 | 33072 ft | 422 kts | 233° |
| 2026-05-08 06:36 | 47.35811 | 7.75850 | 33076 ft | 421 kts | 233° |
| 2026-05-08 06:36 | 47.32383 | 7.68929 | 33080 ft | 421 kts | 233° |
| 2026-05-08 06:37 | 47.28935 | 7.61967 | 33082 ft | 420 kts | 233° |
| 2026-05-08 06:37 | 47.25494 | 7.55026 | 33086 ft | 420 kts | 233° |
| 2026-05-08 06:38 | 47.22040 | 7.48110 | 33088 ft | 419 kts | 233° |
| 2026-05-08 06:38 | 47.18584 | 7.41225 | 33088 ft | 418 kts | 233° |
| 2026-05-08 06:39 | 47.15117 | 7.34379 | 33088 ft | 417 kts | 232° |
| 2026-05-08 06:39 | 47.11513 | 7.27706 | 33087 ft | 417 kts | 230° |
| 2026-05-08 06:40 | 47.07859 | 7.21116 | 33090 ft | 416 kts | 230° |
| 2026-05-08 06:40 | 47.04228 | 7.14497 | 33090 ft | 416 kts | 231° |
| 2026-05-08 06:41 | 47.00600 | 7.07825 | 33088 ft | 416 kts | 231° |
| 2026-05-08 06:41 | 46.96993 | 7.01216 | 33087 ft | 415 kts | 231° |
| 2026-05-08 06:42 | 46.93379 | 6.94634 | 33083 ft | 415 kts | 230° |
| 2026-05-08 06:42 | 46.89764 | 6.88068 | 33085 ft | 414 kts | 230° |
| 2026-05-08 06:43 | 46.86149 | 6.81522 | 33085 ft | 413 kts | 230° |
| 2026-05-08 06:43 | 46.82540 | 6.75005 | 33084 ft | 413 kts | 230° |
| 2026-05-08 06:44 | 46.78923 | 6.68484 | 33086 ft | 413 kts | 230° |
| 2026-05-08 06:44 | 46.75314 | 6.61985 | 33085 ft | 412 kts | 230° |
| 2026-05-08 06:45 | 46.71699 | 6.55508 | 33088 ft | 412 kts | 230° |
| 2026-05-08 06:45 | 46.68083 | 6.49047 | 33090 ft | 411 kts | 230° |
| 2026-05-08 06:46 | 46.64468 | 6.42591 | 33088 ft | 411 kts | 230° |
| 2026-05-08 06:46 | 46.60853 | 6.36162 | 33084 ft | 410 kts | 230° |
| 2026-05-08 06:47 | 46.57247 | 6.29763 | 33082 ft | 409 kts | 230° |
| 2026-05-08 06:47 | 46.53653 | 6.23385 | 33078 ft | 408 kts | 230° |
| 2026-05-08 06:48 | 46.50059 | 6.17022 | 33076 ft | 407 kts | 230° |
| 2026-05-08 06:48 | 46.46489 | 6.10722 | 33078 ft | 407 kts | 230° |
| 2026-05-08 06:49 | 46.42897 | 6.04400 | 33077 ft | 406 kts | 230° |
| 2026-05-08 06:49 | 46.39303 | 5.98092 | 33072 ft | 405 kts | 230° |
| 2026-05-08 06:50 | 46.35708 | 5.91798 | 33067 ft | 405 kts | 230° |
| 2026-05-08 06:50 | 46.32111 | 5.85508 | 33064 ft | 405 kts | 230° |
| 2026-05-08 06:51 | 46.28521 | 5.79237 | 33061 ft | 404 kts | 230° |
| 2026-05-08 06:51 | 46.24930 | 5.72984 | 33058 ft | 404 kts | 230° |
| 2026-05-08 06:52 | 46.21332 | 5.66734 | 33054 ft | 406 kts | 229° |
| 2026-05-08 06:52 | 46.17708 | 5.60478 | 33059 ft | 406 kts | 229° |
| 2026-05-08 06:53 | 46.15894 | 5.57352 | 33178 ft | 406 kts | 230° |
| 2026-05-08 06:53 | 46.14151 | 5.54145 | 33289 ft | 407 kts | 234° |
| 2026-05-08 06:53 | 46.12555 | 5.50775 | 33422 ft | 407 kts | 234° |
| 2026-05-08 06:53 | 46.10949 | 5.47406 | 33548 ft | 408 kts | 234° |
| 2026-05-08 06:54 | 46.09340 | 5.44049 | 33661 ft | 408 kts | 234° |
| 2026-05-08 06:54 | 46.07723 | 5.40684 | 33785 ft | 408 kts | 234° |
| 2026-05-08 06:54 | 46.06106 | 5.37324 | 33914 ft | 409 kts | 234° |
| 2026-05-08 06:54 | 46.04484 | 5.33954 | 34031 ft | 409 kts | 234° |
| 2026-05-08 06:55 | 46.02868 | 5.30602 | 34159 ft | 410 kts | 234° |
| 2026-05-08 06:55 | 46.01241 | 5.27234 | 34283 ft | 410 kts | 234° |
| 2026-05-08 06:55 | 45.99609 | 5.23862 | 34408 ft | 412 kts | 234° |
| 2026-05-08 06:55 | 45.97973 | 5.20485 | 34533 ft | 411 kts | 234° |
| 2026-05-08 06:56 | 45.96342 | 5.17120 | 34656 ft | 410 kts | 234° |
| 2026-05-08 06:56 | 45.94709 | 5.13748 | 34777 ft | 411 kts | 234° |
| 2026-05-08 06:56 | 45.93072 | 5.10374 | 34915 ft | 412 kts | 234° |
| 2026-05-08 06:56 | 45.91432 | 5.06998 | 35030 ft | 413 kts | 234° |
| 2026-05-08 06:57 | 45.88134 | 5.00228 | 35053 ft | 415 kts | 235° |
| 2026-05-08 06:57 | 45.84821 | 4.93440 | 35054 ft | 416 kts | 235° |
| 2026-05-08 06:58 | 45.81499 | 4.86650 | 35052 ft | 416 kts | 235° |
| 2026-05-08 06:58 | 45.78170 | 4.79863 | 35052 ft | 417 kts | 235° |
| 2026-05-08 06:59 | 45.74854 | 4.73111 | 35053 ft | 417 kts | 235° |
| 2026-05-08 06:59 | 45.71502 | 4.66323 | 35050 ft | 418 kts | 235° |
| 2026-05-08 07:00 | 45.68147 | 4.59532 | 35045 ft | 418 kts | 235° |
| 2026-05-08 07:00 | 45.64782 | 4.52747 | 35042 ft | 418 kts | 235° |
| 2026-05-08 07:01 | 45.61425 | 4.45951 | 35042 ft | 419 kts | 235° |
| 2026-05-08 07:01 | 45.58057 | 4.39161 | 35045 ft | 419 kts | 235° |
| 2026-05-08 07:02 | 45.54664 | 4.32382 | 35046 ft | 420 kts | 235° |
| 2026-05-08 07:02 | 45.51293 | 4.25653 | 35044 ft | 420 kts | 235° |
| 2026-05-08 07:03 | 45.47900 | 4.18873 | 35045 ft | 420 kts | 235° |
| 2026-05-08 07:03 | 45.44503 | 4.12095 | 35048 ft | 421 kts | 235° |
| 2026-05-08 07:04 | 45.41092 | 4.05325 | 35048 ft | 420 kts | 234° |
| 2026-05-08 07:04 | 45.37677 | 3.98568 | 35049 ft | 421 kts | 235° |
| 2026-05-08 07:05 | 45.34259 | 3.91805 | 35043 ft | 422 kts | 235° |
| 2026-05-08 07:05 | 45.30825 | 3.85039 | 35042 ft | 422 kts | 235° |
| 2026-05-08 07:06 | 45.27374 | 3.78282 | 35040 ft | 423 kts | 235° |
| 2026-05-08 07:06 | 45.23940 | 3.71510 | 35043 ft | 423 kts | 236° |
| 2026-05-08 07:07 | 45.20583 | 3.64658 | 35043 ft | 423 kts | 236° |
| 2026-05-08 07:07 | 45.17241 | 3.57793 | 35045 ft | 423 kts | 236° |
| 2026-05-08 07:08 | 45.13875 | 3.50953 | 35045 ft | 423 kts | 236° |
| 2026-05-08 07:08 | 45.10485 | 3.44134 | 35044 ft | 423 kts | 236° |
| 2026-05-08 07:09 | 45.07088 | 3.37327 | 35045 ft | 423 kts | 236° |
| 2026-05-08 07:09 | 45.03697 | 3.30528 | 35041 ft | 423 kts | 236° |
| 2026-05-08 07:10 | 45.00307 | 3.23723 | 35038 ft | 423 kts | 236° |
| 2026-05-08 07:10 | 44.96937 | 3.16976 | 35034 ft | 423 kts | 237° |
| 2026-05-08 07:11 | 44.93543 | 3.10194 | 35028 ft | 423 kts | 236° |
| 2026-05-08 07:11 | 44.90137 | 3.03423 | 35019 ft | 423 kts | 236° |
| 2026-05-08 07:12 | 44.86723 | 2.96670 | 35020 ft | 423 kts | 237° |
| 2026-05-08 07:12 | 44.83345 | 2.89894 | 35008 ft | 422 kts | 238° |
| 2026-05-08 07:13 | 44.80157 | 2.82958 | 35002 ft | 422 kts | 240° |
| 2026-05-08 07:13 | 44.77021 | 2.75983 | 35009 ft | 422 kts | 240° |
| 2026-05-08 07:14 | 44.73847 | 2.69028 | 35010 ft | 422 kts | 239° |
| 2026-05-08 07:14 | 44.71156 | 2.63227 | 35010 ft | 423 kts | 239° |
| 2026-05-08 07:15 | 44.67932 | 2.56322 | 35011 ft | 423 kts | 239° |
| 2026-05-08 07:15 | 44.64725 | 2.49455 | 35007 ft | 423 kts | 239° |
| 2026-05-08 07:16 | 44.61499 | 2.42556 | 35006 ft | 423 kts | 240° |
| 2026-05-08 07:16 | 44.58279 | 2.35657 | 35002 ft | 423 kts | 240° |
| 2026-05-08 07:17 | 44.55054 | 2.28768 | 35010 ft | 423 kts | 240° |
| 2026-05-08 07:17 | 44.51846 | 2.21934 | 35007 ft | 423 kts | 240° |
| 2026-05-08 07:18 | 44.48605 | 2.15069 | 35012 ft | 422 kts | 240° |
| 2026-05-08 07:18 | 44.45368 | 2.08226 | 35004 ft | 422 kts | 240° |
| 2026-05-08 07:19 | 44.42133 | 2.01391 | 35010 ft | 421 kts | 240° |
| 2026-05-08 07:19 | 44.38895 | 1.94565 | 35006 ft | 421 kts | 240° |
| 2026-05-08 07:20 | 44.35661 | 1.87751 | 35009 ft | 421 kts | 240° |
| 2026-05-08 07:20 | 44.32421 | 1.80949 | 35014 ft | 420 kts | 240° |
| 2026-05-08 07:21 | 44.29175 | 1.74159 | 35006 ft | 420 kts | 240° |
| 2026-05-08 07:21 | 44.26000 | 1.67335 | 35010 ft | 419 kts | 242° |
| 2026-05-08 07:22 | 44.22878 | 1.60462 | 35003 ft | 419 kts | 242° |
| 2026-05-08 07:22 | 44.19749 | 1.53611 | 35004 ft | 419 kts | 242° |
| 2026-05-08 07:23 | 44.16598 | 1.46780 | 34998 ft | 419 kts | 241° |
| 2026-05-08 07:23 | 44.13454 | 1.40010 | 34998 ft | 419 kts | 241° |
| 2026-05-08 07:24 | 44.10289 | 1.33197 | 34986 ft | 419 kts | 242° |
| 2026-05-08 07:24 | 44.07127 | 1.26390 | 34985 ft | 419 kts | 242° |
| 2026-05-08 07:25 | 44.03959 | 1.19581 | 34982 ft | 419 kts | 242° |
| 2026-05-08 07:26 | 43.99212 | 1.09423 | 35001 ft | 419 kts | 241° |
| 2026-05-08 07:26 | 43.96039 | 1.02663 | 35006 ft | 416 kts | 242° |
| 2026-05-08 07:27 | 43.92885 | 0.95950 | 34994 ft | 414 kts | 242° |
| 2026-05-08 07:27 | 43.89734 | 0.89273 | 34997 ft | 413 kts | 242° |
| 2026-05-08 07:28 | 43.86667 | 0.82577 | 34998 ft | 410 kts | 244° |
| 2026-05-08 07:28 | 43.83783 | 0.75779 | 34986 ft | 409 kts | 244° |
| 2026-05-08 07:29 | 43.80916 | 0.68989 | 34986 ft | 408 kts | 244° |
| 2026-05-08 07:29 | 43.78020 | 0.62245 | 34983 ft | 407 kts | 244° |
| 2026-05-08 07:30 | 43.75101 | 0.55525 | 34980 ft | 407 kts | 244° |
| 2026-05-08 07:30 | 43.72200 | 0.48850 | 34977 ft | 407 kts | 244° |
| 2026-05-08 07:31 | 43.69292 | 0.42138 | 34974 ft | 407 kts | 244° |
| 2026-05-08 07:31 | 43.66376 | 0.35436 | 34968 ft | 407 kts | 244° |
| 2026-05-08 07:32 | 43.63451 | 0.28746 | 34963 ft | 407 kts | 244° |
| 2026-05-08 07:32 | 43.60519 | 0.22059 | 34965 ft | 407 kts | 244° |
| 2026-05-08 07:33 | 43.57587 | 0.15378 | 34967 ft | 407 kts | 244° |
| 2026-05-08 07:33 | 43.54647 | 0.08705 | 34966 ft | 407 kts | 244° |
| 2026-05-08 07:34 | 43.51743 | 0.02122 | 34962 ft | 407 kts | 244° |
| 2026-05-08 07:34 | 43.48801 | -0.04536 | 34957 ft | 407 kts | 243° |
| 2026-05-08 07:35 | 43.45856 | -0.11200 | 34939 ft | 408 kts | 240° |
| 2026-05-08 07:35 | 43.42892 | -0.17873 | 34944 ft | 409 kts | 240° |
| 2026-05-08 07:36 | 43.39919 | -0.24542 | 34944 ft | 409 kts | 240° |
| 2026-05-08 07:36 | 43.36946 | -0.31197 | 34943 ft | 409 kts | 240° |
| 2026-05-08 07:37 | 43.33971 | -0.37849 | 34936 ft | 409 kts | 240° |
| 2026-05-08 07:37 | 43.30991 | -0.44503 | 34934 ft | 409 kts | 240° |
| 2026-05-08 07:38 | 43.28006 | -0.51145 | 34934 ft | 409 kts | 240° |
| 2026-05-08 07:38 | 43.25017 | -0.57798 | 34940 ft | 409 kts | 240° |
| 2026-05-08 07:39 | 43.22025 | -0.64439 | 34943 ft | 409 kts | 240° |
| 2026-05-08 07:39 | 43.19022 | -0.71076 | 34948 ft | 410 kts | 240° |
| 2026-05-08 07:40 | 43.16018 | -0.77709 | 34956 ft | 409 kts | 240° |
| 2026-05-08 07:40 | 43.13007 | -0.84332 | 34953 ft | 409 kts | 240° |
| 2026-05-08 07:41 | 43.09993 | -0.90944 | 34956 ft | 409 kts | 239° |
| 2026-05-08 07:41 | 43.06998 | -0.97508 | 34959 ft | 409 kts | 240° |
| 2026-05-08 07:42 | 43.03987 | -1.04102 | 34962 ft | 409 kts | 239° |
| 2026-05-08 07:42 | 43.00966 | -1.10686 | 34961 ft | 409 kts | 239° |
| 2026-05-08 07:43 | 42.97947 | -1.17266 | 34961 ft | 409 kts | 239° |
| 2026-05-08 07:43 | 42.94928 | -1.23828 | 34962 ft | 408 kts | 239° |
| 2026-05-08 07:44 | 42.91899 | -1.30370 | 34956 ft | 408 kts | 239° |
| 2026-05-08 07:44 | 42.88867 | -1.36920 | 34962 ft | 408 kts | 239° |
| 2026-05-08 07:45 | 42.85837 | -1.43455 | 34967 ft | 408 kts | 239° |
| 2026-05-08 07:45 | 42.82801 | -1.49992 | 34974 ft | 408 kts | 239° |
| 2026-05-08 07:46 | 42.79768 | -1.56521 | 34972 ft | 408 kts | 239° |
| 2026-05-08 07:46 | 42.76725 | -1.63037 | 34973 ft | 408 kts | 238° |
| 2026-05-08 07:47 | 42.73754 | -1.69593 | 34974 ft | 406 kts | 244° |
| 2026-05-08 07:47 | 42.71884 | -1.76831 | 34977 ft | 406 kts | 252° |
| 2026-05-08 07:48 | 42.70238 | -1.84165 | 34975 ft | 406 kts | 252° |
| 2026-05-08 07:48 | 42.68576 | -1.91496 | 34975 ft | 406 kts | 252° |
| 2026-05-08 07:49 | 42.66916 | -1.98823 | 34976 ft | 406 kts | 252° |
| 2026-05-08 07:49 | 42.65252 | -2.06153 | 34975 ft | 406 kts | 252° |
| 2026-05-08 07:50 | 42.63579 | -2.13487 | 34973 ft | 407 kts | 252° |
| 2026-05-08 07:50 | 42.61873 | -2.20808 | 34974 ft | 407 kts | 251° |
| 2026-05-08 07:51 | 42.60093 | -2.28096 | 34977 ft | 407 kts | 250° |
| 2026-05-08 07:51 | 42.58297 | -2.35378 | 34975 ft | 407 kts | 250° |
| 2026-05-08 07:52 | 42.56512 | -2.42677 | 34971 ft | 408 kts | 251° |
| 2026-05-08 07:52 | 42.54735 | -2.49973 | 34968 ft | 408 kts | 251° |
| 2026-05-08 07:53 | 42.52960 | -2.57230 | 34966 ft | 408 kts | 250° |
| 2026-05-08 07:53 | 42.51166 | -2.64527 | 34966 ft | 408 kts | 250° |
| 2026-05-08 07:54 | 42.49350 | -2.71875 | 34966 ft | 409 kts | 250° |
| 2026-05-08 07:54 | 42.47549 | -2.79129 | 34967 ft | 409 kts | 250° |
| 2026-05-08 07:55 | 42.45734 | -2.86436 | 34962 ft | 409 kts | 250° |
| 2026-05-08 07:55 | 42.43491 | -2.93501 | 34962 ft | 409 kts | 244° |
| 2026-05-08 07:56 | 42.41110 | -3.00489 | 34955 ft | 409 kts | 244° |
| 2026-05-08 07:56 | 42.38719 | -3.07491 | 34952 ft | 410 kts | 244° |
| 2026-05-08 07:57 | 42.36330 | -3.14493 | 34947 ft | 410 kts | 244° |
| 2026-05-08 07:57 | 42.33926 | -3.21499 | 34945 ft | 411 kts | 244° |
| 2026-05-08 07:58 | 42.31518 | -3.28514 | 34941 ft | 411 kts | 244° |
| 2026-05-08 07:58 | 42.29106 | -3.35521 | 34947 ft | 412 kts | 243° |
| 2026-05-08 07:59 | 42.27091 | -3.41357 | 34945 ft | 412 kts | 243° |
| 2026-05-08 07:59 | 42.24665 | -3.48369 | 34938 ft | 413 kts | 243° |
| 2026-05-08 08:00 | 42.22232 | -3.55389 | 34939 ft | 413 kts | 243° |
| 2026-05-08 08:00 | 42.19796 | -3.62404 | 34936 ft | 413 kts | 243° |
| 2026-05-08 08:01 | 42.17347 | -3.69421 | 34935 ft | 414 kts | 243° |
| 2026-05-08 08:01 | 42.14892 | -3.76439 | 34932 ft | 414 kts | 242° |
| 2026-05-08 08:02 | 42.12433 | -3.83458 | 34939 ft | 414 kts | 242° |
| 2026-05-08 08:02 | 42.09970 | -3.90482 | 34936 ft | 415 kts | 242° |
| 2026-05-08 08:03 | 42.07500 | -3.97501 | 34936 ft | 415 kts | 242° |
| 2026-05-08 08:03 | 42.05011 | -4.04512 | 34935 ft | 415 kts | 242° |
| 2026-05-08 08:04 | 42.02124 | -4.11189 | 34943 ft | 411 kts | 229° |
| 2026-05-08 08:04 | 41.98007 | -4.16484 | 34938 ft | 410 kts | 220° |
| 2026-05-08 08:05 | 41.93703 | -4.21524 | 34932 ft | 410 kts | 220° |
| 2026-05-08 08:05 | 41.89399 | -4.26566 | 34928 ft | 411 kts | 220° |
| 2026-05-08 08:06 | 41.85117 | -4.31568 | 34926 ft | 411 kts | 220° |
| 2026-05-08 08:06 | 41.80801 | -4.36596 | 34932 ft | 411 kts | 220° |
| 2026-05-08 08:07 | 41.76489 | -4.41613 | 34925 ft | 411 kts | 220° |
| 2026-05-08 08:07 | 41.72172 | -4.46622 | 34925 ft | 411 kts | 220° |
| 2026-05-08 08:08 | 41.67851 | -4.51629 | 34925 ft | 411 kts | 220° |
| 2026-05-08 08:08 | 41.63532 | -4.56633 | 34925 ft | 411 kts | 220° |
| 2026-05-08 08:09 | 41.59207 | -4.61622 | 34923 ft | 411 kts | 219° |
| 2026-05-08 08:09 | 41.54879 | -4.66600 | 34924 ft | 411 kts | 219° |
| 2026-05-08 08:10 | 41.50553 | -4.71571 | 34921 ft | 410 kts | 219° |
| 2026-05-08 08:10 | 41.46226 | -4.76535 | 34923 ft | 410 kts | 219° |
| 2026-05-08 08:11 | 41.41900 | -4.81503 | 34924 ft | 410 kts | 219° |
| 2026-05-08 08:11 | 41.37568 | -4.86461 | 34928 ft | 410 kts | 219° |
| 2026-05-08 08:12 | 41.33239 | -4.91408 | 34930 ft | 410 kts | 219° |
| 2026-05-08 08:12 | 41.28906 | -4.96346 | 34923 ft | 410 kts | 218° |
| 2026-05-08 08:13 | 41.24574 | -5.01279 | 34923 ft | 410 kts | 218° |
| 2026-05-08 08:13 | 41.20235 | -5.06200 | 34922 ft | 410 kts | 218° |
| 2026-05-08 08:14 | 41.15889 | -5.11121 | 34927 ft | 411 kts | 218° |
| 2026-05-08 08:14 | 41.11546 | -5.16040 | 34929 ft | 411 kts | 218° |
| 2026-05-08 08:15 | 41.07197 | -5.20952 | 34927 ft | 410 kts | 218° |
| 2026-05-08 08:15 | 41.02848 | -5.25850 | 34931 ft | 410 kts | 218° |
| 2026-05-08 08:16 | 40.98495 | -5.30738 | 34930 ft | 410 kts | 218° |
| 2026-05-08 08:16 | 40.94147 | -5.35627 | 34929 ft | 411 kts | 218° |
| 2026-05-08 08:17 | 40.89787 | -5.40509 | 34927 ft | 411 kts | 217° |
| 2026-05-08 08:17 | 40.85424 | -5.45386 | 34930 ft | 411 kts | 217° |
| 2026-05-08 08:18 | 40.81063 | -5.50261 | 34930 ft | 411 kts | 217° |
| 2026-05-08 08:18 | 40.76701 | -5.55127 | 34933 ft | 410 kts | 217° |
| 2026-05-08 08:19 | 40.72334 | -5.59989 | 34931 ft | 411 kts | 217° |
| 2026-05-08 08:19 | 40.67965 | -5.64843 | 34933 ft | 411 kts | 217° |
| 2026-05-08 08:20 | 40.63623 | -5.69654 | 34929 ft | 411 kts | 217° |
| 2026-05-08 08:20 | 40.59252 | -5.74490 | 34924 ft | 411 kts | 216° |